Time;durP1;ratioP1;P1;durP2;ratioP2;P2;SDS_P1;SDS_P2;PMS_P1;PMS_P2;Temp;Humidity;BMP_temperature;BMP_pressure;BME280_temperature;BME280_humidity;BME280_pressure;Samples;Min_cycle;Max_cycle;Signal;HPM_P1;HPM_P2
2023/01/02 00:00:52;;;;;;;7.47;4.75;;;9.10;99.90;;;;;;6203904;28;20046;-83
2023/01/02 00:03:56;;;;;;;8.07;4.25;;;9.10;99.90;;;;;;6205042;28;20054;-83
2023/01/02 00:06:58;;;;;;;6.35;4.03;;;9.10;99.90;;;;;;6205972;28;20026;-82
2023/01/02 00:10:00;;;;;;;8.85;4.85;;;9.10;99.90;;;;;;6204997;28;20051;-81
2023/01/02 00:13:01;;;;;;;10.70;4.70;;;9.10;99.90;;;;;;6202718;28;20521;-81
2023/01/02 00:16:03;;;;;;;10.27;5.97;;;9.20;99.90;;;;;;6205330;28;20046;-81
2023/01/02 00:19:07;;;;;;;9.25;4.57;;;9.10;99.90;;;;;;6203927;28;20057;-80
2023/01/02 00:22:09;;;;;;;15.07;5.35;;;9.20;99.90;;;;;;6205563;28;20344;-80
2023/01/02 00:25:10;;;;;;;11.68;5.43;;;9.30;99.90;;;;;;6204030;28;20034;-81
2023/01/02 00:28:12;;;;;;;8.10;4.65;;;9.30;99.90;;;;;;6203117;28;20061;-80
2023/01/02 00:31:14;;;;;;;8.13;5.30;;;9.30;99.90;;;;;;6203100;28;20057;-80
2023/01/02 00:34:17;;;;;;;11.85;5.80;;;9.30;99.90;;;;;;6203958;28;20058;-80
2023/01/02 00:37:19;;;;;;;9.20;5.63;;;9.30;99.90;;;;;;6202646;28;20046;-80
2023/01/02 00:40:20;;;;;;;9.70;4.78;;;9.40;99.90;;;;;;6203570;28;20058;-81
2023/01/02 00:43:22;;;;;;;5.93;4.38;;;9.40;99.90;;;;;;6204101;28;20034;-80
2023/01/02 00:46:24;;;;;;;8.52;5.70;;;9.40;99.90;;;;;;6204027;28;20488;-80
2023/01/02 00:49:27;;;;;;;13.07;5.72;;;9.40;99.90;;;;;;6204456;28;20058;-80
2023/01/02 00:52:28;;;;;;;6.60;4.78;;;9.40;99.90;;;;;;6203092;28;20070;-80
2023/01/02 00:55:30;;;;;;;11.95;6.05;;;9.40;99.90;;;;;;6203124;28;20050;-80
2023/01/02 00:58:32;;;;;;;9.80;5.93;;;9.50;99.90;;;;;;6198873;28;20046;-80
2023/01/02 01:01:33;;;;;;;10.90;5.85;;;9.50;99.90;;;;;;6202249;28;20628;-80
2023/01/02 01:04:37;;;;;;;10.48;7.25;;;9.60;99.90;;;;;;6203212;28;20046;-80
2023/01/02 01:07:38;;;;;;;17.77;8.05;;;9.60;99.90;;;;;;6201792;28;20142;-80
2023/01/02 01:10:40;;;;;;;20.73;5.72;;;9.60;99.90;;;;;;6199576;28;20069;-81
2023/01/02 01:13:42;;;;;;;10.80;4.80;;;9.60;99.90;;;;;;6203272;28;20057;-80
2023/01/02 01:16:43;;;;;;;8.68;4.85;;;9.70;99.90;;;;;;6202715;28;20066;-80
2023/01/02 01:19:46;;;;;;;14.98;7.88;;;9.60;99.90;;;;;;6203027;28;20063;-81
2023/01/02 01:22:48;;;;;;;7.97;5.15;;;9.60;99.90;;;;;;6204153;28;20046;-80
2023/01/02 01:25:50;;;;;;;9.77;5.25;;;9.60;99.90;;;;;;6205531;28;20054;-81
2023/01/02 01:28:53;;;;;;;8.35;5.00;;;9.70;99.90;;;;;;6205472;28;20605;-81
2023/01/02 01:31:54;;;;;;;9.43;5.28;;;9.60;99.90;;;;;;6197224;28;20507;-81
2023/01/02 01:34:57;;;;;;;7.68;4.78;;;9.60;99.90;;;;;;6207508;28;20042;-80
2023/01/02 01:37:59;;;;;;;10.88;4.18;;;9.70;99.90;;;;;;6201736;28;20484;-81
2023/01/02 01:41:02;;;;;;;11.52;5.88;;;9.60;99.90;;;;;;6202461;28;20508;-80
2023/01/02 01:44:37;;;;;;;14.57;7.38;;;9.60;99.90;;;;;;6201334;28;20057;-81
2023/01/02 01:47:42;;;;;;;10.43;5.05;;;9.60;99.90;;;;;;6200720;28;20050;-80
2023/01/02 01:50:45;;;;;;;8.55;5.50;;;9.50;99.90;;;;;;6201544;28;20057;-80
2023/01/02 01:53:49;;;;;;;6.47;4.28;;;9.50;99.90;;;;;;6201213;28;20057;-80
2023/01/02 01:56:56;;;;;;;8.20;5.20;;;9.60;99.90;;;;;;6201708;28;20049;-80
2023/01/02 01:59:59;;;;;;;7.45;5.50;;;9.60;99.90;;;;;;6201357;28;20516;-80
2023/01/02 02:03:06;;;;;;;9.68;4.68;;;9.60;99.90;;;;;;6201908;28;20081;-81
2023/01/02 02:06:10;;;;;;;9.23;4.80;;;9.50;99.90;;;;;;6202770;28;20050;-80
2023/01/02 02:09:15;;;;;;;18.55;7.30;;;9.50;99.90;;;;;;6203886;28;20050;-80
2023/01/02 02:12:17;;;;;;;15.15;5.13;;;9.50;99.90;;;;;;6202612;28;20504;-80
2023/01/02 02:15:24;;;;;;;11.70;5.03;;;9.50;99.90;;;;;;6202607;28;20423;-80
2023/01/02 02:18:39;;;;;;;9.87;6.07;;;9.50;99.90;;;;;;6202410;28;20057;-82
2023/01/02 02:22:00;;;;;;;7.03;4.38;;;9.50;99.90;;;;;;6203061;28;20054;-81
2023/01/02 02:25:42;;;;;;;9.10;5.38;;;9.50;99.90;;;;;;6203485;28;20526;-81
2023/01/02 02:29:08;;;;;;;16.38;5.65;;;9.50;99.90;;;;;;6190336;28;20046;-81
2023/01/02 02:32:20;;;;;;;14.07;5.13;;;9.50;99.90;;;;;;6202552;28;20042;-81
2023/01/02 02:35:32;;;;;;;9.98;4.65;;;9.40;99.90;;;;;;6202800;28;20073;-81
2023/01/02 02:38:43;;;;;;;7.90;5.35;;;9.40;99.90;;;;;;6201345;28;20042;-81
2023/01/02 02:41:53;;;;;;;8.52;5.32;;;9.40;99.90;;;;;;6202596;28;20050;-81
2023/01/02 02:45:00;;;;;;;11.70;4.47;;;9.40;99.90;;;;;;6202251;28;20413;-81
2023/01/02 02:48:11;;;;;;;11.32;5.55;;;9.30;99.90;;;;;;6205342;28;20673;-81
2023/01/02 02:51:18;;;;;;;9.30;4.60;;;9.30;99.90;;;;;;6206720;28;20525;-81
2023/01/02 02:54:24;;;;;;;7.25;4.90;;;9.30;99.90;;;;;;6206822;28;20058;-81
2023/01/02 02:57:26;;;;;;;15.32;7.25;;;9.30;99.90;;;;;;6206637;28;20050;-81
2023/01/02 03:00:28;;;;;;;14.60;4.97;;;9.30;99.90;;;;;;6206182;28;20054;-81
2023/01/02 03:03:31;;;;;;;7.65;4.95;;;9.30;99.90;;;;;;6206043;28;20039;-80
2023/01/02 03:06:50;;;;;;;9.88;5.95;;;9.30;99.90;;;;;;6207191;28;20054;-82
2023/01/02 03:10:02;;;;;;;20.40;9.13;;;9.30;99.90;;;;;;6206269;28;20054;-81
2023/01/02 03:13:13;;;;;;;6.03;5.30;;;9.30;99.90;;;;;;6202408;28;20046;-80
2023/01/02 03:16:20;;;;;;;8.38;5.50;;;9.30;99.90;;;;;;6206254;28;20057;-80
2023/01/02 03:19:30;;;;;;;9.40;3.92;;;9.20;99.90;;;;;;6204989;28;20071;-81
2023/01/02 03:22:36;;;;;;;17.42;5.00;;;9.20;99.90;;;;;;6205374;28;20050;-80
2023/01/02 03:25:38;;;;;;;7.30;4.63;;;9.20;99.90;;;;;;6205938;28;20050;-80
2023/01/02 03:28:44;;;;;;;10.15;4.50;;;9.20;99.90;;;;;;6205217;28;20049;-80
2023/01/02 03:31:51;;;;;;;7.25;6.05;;;9.20;99.90;;;;;;6205382;28;20042;-80
2023/01/02 03:34:54;;;;;;;15.10;6.53;;;9.10;99.90;;;;;;6205624;28;20042;-80
2023/01/02 03:37:58;;;;;;;7.00;4.60;;;9.10;99.90;;;;;;6205636;28;20053;-80
2023/01/02 03:41:06;;;;;;;8.40;4.28;;;9.00;99.90;;;;;;6204444;28;20595;-80
2023/01/02 03:44:09;;;;;;;8.27;6.20;;;9.00;99.90;;;;;;6205133;28;20047;-79
2023/01/02 03:47:22;;;;;;;11.32;5.88;;;9.00;99.90;;;;;;6204491;28;20046;-80
2023/01/02 03:50:32;;;;;;;8.93;4.65;;;9.00;99.90;;;;;;6204894;28;20057;-80
2023/01/02 03:53:36;;;;;;;11.13;5.25;;;9.10;99.90;;;;;;6204454;28;20443;-80
2023/01/02 03:56:44;;;;;;;9.02;4.43;;;9.10;99.90;;;;;;6205263;28;20713;-81
2023/01/02 03:59:55;;;;;;;9.65;5.43;;;9.00;99.90;;;;;;6203675;28;20046;-81
2023/01/02 04:03:03;;;;;;;7.72;4.68;;;9.00;99.90;;;;;;6204505;28;20507;-80
2023/01/02 04:06:09;;;;;;;;;;;9.00;99.90;;;;;;6206191;28;20054;-80
2023/01/02 04:09:15;;;;;;;8.73;5.85;;;9.00;99.90;;;;;;6204976;28;19937;-80
2023/01/02 04:12:20;;;;;;;10.23;5.10;;;9.00;99.90;;;;;;6205160;28;20440;-80
2023/01/02 04:15:24;;;;;;;10.27;4.07;;;9.00;99.90;;;;;;6205016;28;20042;-81
2023/01/02 04:18:29;;;;;;;13.45;5.00;;;9.00;99.90;;;;;;6203733;28;20397;-81
2023/01/02 04:21:37;;;;;;;9.05;5.25;;;9.10;99.90;;;;;;6204986;28;20050;-81
2023/01/02 04:24:43;;;;;;;11.85;5.65;;;9.10;99.90;;;;;;6205008;28;20152;-80
2023/01/02 04:27:49;;;;;;;10.50;4.53;;;9.10;99.90;;;;;;6204013;28;20047;-81
2023/01/02 04:30:55;;;;;;;9.57;5.80;;;9.10;99.90;;;;;;6204963;28;20047;-81
2023/01/02 04:34:00;;;;;;;10.02;5.07;;;9.10;99.90;;;;;;6205308;28;20054;-81
2023/01/02 04:37:03;;;;;;;12.25;5.43;;;9.10;99.90;;;;;;6208986;28;20046;-80
2023/01/02 04:40:11;;;;;;;12.00;5.68;;;9.10;99.90;;;;;;6204107;28;20050;-80
2023/01/02 04:43:17;;;;;;;7.75;4.72;;;9.10;99.90;;;;;;6203566;28;20054;-81
2023/01/02 04:46:19;;;;;;;8.40;3.92;;;9.10;99.90;;;;;;6204130;28;20047;-80
2023/01/02 04:49:21;;;;;;;8.88;3.95;;;9.10;99.90;;;;;;6203151;28;20049;-81
2023/01/02 04:52:24;;;;;;;7.60;4.53;;;9.10;99.90;;;;;;6203604;28;20571;-81
2023/01/02 04:55:26;;;;;;;9.50;4.45;;;9.10;99.90;;;;;;6203557;28;20046;-81
2023/01/02 04:58:27;;;;;;;8.00;4.05;;;9.00;99.90;;;;;;6203555;28;20027;-81
2023/01/02 05:01:29;;;;;;;9.32;4.90;;;9.00;99.90;;;;;;6202882;28;20054;-80
2023/01/02 05:04:31;;;;;;;10.43;4.60;;;8.90;99.90;;;;;;6202812;28;20058;-80
2023/01/02 05:07:34;;;;;;;5.25;4.13;;;8.80;99.90;;;;;;6204675;28;20042;-81
2023/01/02 05:10:35;;;;;;;7.60;4.53;;;8.70;99.90;;;;;;6203594;28;20050;-81
2023/01/02 05:13:37;;;;;;;13.52;6.18;;;8.60;99.90;;;;;;6204404;28;20057;-80
2023/01/02 05:16:39;;;;;;;9.80;5.97;;;8.60;99.90;;;;;;6203013;28;20057;-80
2023/01/02 05:19:40;;;;;;;16.10;5.28;;;8.60;99.90;;;;;;6182128;28;20054;-81
2023/01/02 05:26:03;;;;;;;13.32;4.80;;;8.60;99.90;;;;;;6179797;28;20082;-81
2023/01/02 05:29:05;;;;;;;8.90;4.25;;;8.60;99.90;;;;;;6178804;28;20046;-81
2023/01/02 05:32:06;;;;;;;8.15;4.63;;;8.60;99.90;;;;;;6180030;28;20194;-81
2023/01/02 05:35:09;;;;;;;7.70;4.97;;;8.60;99.90;;;;;;6179988;28;20051;-79
2023/01/02 05:38:12;;;;;;;10.93;4.85;;;8.70;99.90;;;;;;6178811;28;20050;-80
2023/01/02 05:41:14;;;;;;;13.38;5.22;;;8.60;99.90;;;;;;6178159;28;20066;-81
2023/01/02 05:44:15;;;;;;;10.98;7.30;;;8.60;99.90;;;;;;6179021;28;20102;-80
2023/01/02 05:47:17;;;;;;;12.32;6.22;;;8.60;99.90;;;;;;6177193;28;20047;-80
2023/01/02 05:50:19;;;;;;;9.90;5.55;;;8.60;99.90;;;;;;6179341;28;20046;-80
2023/01/02 05:53:22;;;;;;;8.23;5.10;;;8.60;99.90;;;;;;6178800;28;20055;-81
2023/01/02 05:56:23;;;;;;;7.20;5.30;;;8.50;99.90;;;;;;6177826;28;20062;-80
2023/01/02 05:59:25;;;;;;;7.30;4.63;;;8.50;99.90;;;;;;6178170;28;20062;-79
2023/01/02 06:02:27;;;;;;;13.32;4.90;;;8.50;99.90;;;;;;6178235;28;20512;-81
2023/01/02 06:05:28;;;;;;;11.55;5.60;;;8.50;99.90;;;;;;6178624;28;20055;-80
2023/01/02 06:08:32;;;;;;;7.00;4.50;;;8.40;99.90;;;;;;6179490;28;20054;-80
2023/01/02 06:11:34;;;;;;;11.52;5.30;;;8.40;99.90;;;;;;6178702;28;20081;-79
2023/01/02 06:14:36;;;;;;;11.57;6.07;;;8.40;99.90;;;;;;6182539;28;20066;-79
2023/01/02 06:17:38;;;;;;;10.88;5.25;;;8.40;99.90;;;;;;6202345;28;20050;-80
2023/01/02 06:20:39;;;;;;;18.48;4.93;;;8.40;99.90;;;;;;6202105;28;20164;-81
2023/01/02 06:23:43;;;;;;;7.43;5.28;;;8.40;99.90;;;;;;6207461;28;20058;-82
2023/01/02 06:26:45;;;;;;;7.63;5.57;;;8.30;99.90;;;;;;6208054;28;20046;-82
2023/01/02 06:29:47;;;;;;;9.38;5.38;;;8.40;99.90;;;;;;6208128;28;20416;-81
2023/01/02 06:32:48;;;;;;;15.25;5.70;;;8.40;99.90;;;;;;6207866;28;20050;-80
2023/01/02 06:35:57;;;;;;;8.55;4.53;;;8.30;99.90;;;;;;6208626;28;20046;-81
2023/01/02 06:39:00;;;;;;;6.63;4.55;;;8.20;99.90;;;;;;6208399;28;20054;-80
2023/01/02 06:42:02;;;;;;;8.45;5.53;;;8.20;99.90;;;;;;6208568;28;20054;-81
2023/01/02 06:45:05;;;;;;;6.97;4.53;;;8.20;99.90;;;;;;6209281;28;20050;-81
2023/01/02 06:48:06;;;;;;;5.15;4.25;;;8.20;99.90;;;;;;6208246;28;20058;-81
2023/01/02 06:51:10;;;;;;;5.57;4.07;;;8.30;99.90;;;;;;6207832;28;20046;-81
2023/01/02 06:54:13;;;;;;;7.22;4.05;;;8.40;99.90;;;;;;6208729;28;20046;-81
2023/01/02 06:57:15;;;;;;;8.60;5.00;;;8.40;99.90;;;;;;6207670;28;20192;-80
2023/01/02 07:00:17;;;;;;;8.38;4.60;;;8.50;99.90;;;;;;6207885;28;20050;-81
2023/01/02 07:03:19;;;;;;;15.07;5.00;;;8.50;99.90;;;;;;6207736;28;20042;-80
2023/01/02 07:06:22;;;;;;;9.98;4.85;;;8.50;99.90;;;;;;6208120;28;20050;-80
2023/01/02 07:09:25;;;;;;;6.40;4.32;;;8.60;99.90;;;;;;6207010;28;20075;-81
2023/01/02 07:12:27;;;;;;;26.02;11.70;;;8.60;99.90;;;;;;6207078;28;20431;-79
2023/01/02 07:15:29;;;;;;;17.83;12.13;;;8.70;99.90;;;;;;6208383;28;20050;-79
2023/01/02 07:18:31;;;;;;;9.45;5.85;;;8.70;99.90;;;;;;6204406;28;20046;-79
2023/01/02 07:21:32;;;;;;;7.90;5.90;;;8.70;99.90;;;;;;6207036;28;20398;-79
2023/01/02 07:24:35;;;;;;;10.13;5.03;;;8.70;99.90;;;;;;6207535;28;20046;-80
2023/01/02 07:27:37;;;;;;;8.18;4.78;;;8.80;99.90;;;;;;6208339;28;20050;-80
2023/01/02 07:30:39;;;;;;;14.13;6.03;;;8.80;99.90;;;;;;6208620;28;20054;-79
2023/01/02 07:33:40;;;;;;;7.15;5.38;;;8.80;99.90;;;;;;6209159;28;20166;-80
2023/01/02 07:36:42;;;;;;;10.70;4.95;;;8.80;99.90;;;;;;6208598;28;20042;-80
2023/01/02 07:39:45;;;;;;;12.30;5.43;;;8.90;99.90;;;;;;6208393;28;20046;-80
2023/01/02 07:42:47;;;;;;;8.63;5.78;;;8.90;99.90;;;;;;6205288;28;20582;-80
2023/01/02 07:45:48;;;;;;;10.32;5.45;;;9.00;99.90;;;;;;6205984;28;20512;-80
2023/01/02 07:48:50;;;;;;;7.93;4.55;;;9.00;99.90;;;;;;6207306;28;20042;-80
2023/01/02 07:51:52;;;;;;;10.90;6.65;;;9.00;99.90;;;;;;6206013;28;20057;-80
2023/01/02 07:54:55;;;;;;;11.27;4.60;;;9.00;99.90;;;;;;6205683;28;20046;-80
2023/01/02 07:57:56;;;;;;;6.20;4.55;;;9.10;99.90;;;;;;6205953;28;20057;-80
2023/01/02 08:00:59;;;;;;;8.07;4.15;;;9.10;99.90;;;;;;6205406;28;20054;-80
2023/01/02 08:04:00;;;;;;;7.25;3.97;;;9.10;99.90;;;;;;6205381;28;20050;-80
2023/01/02 08:07:02;;;;;;;8.98;4.07;;;9.10;99.90;;;;;;6205174;28;20052;-80
2023/01/02 08:10:06;;;;;;;14.10;5.38;;;9.10;99.90;;;;;;6206446;28;20078;-81
2023/01/02 08:13:08;;;;;;;10.00;4.75;;;9.10;99.90;;;;;;6204452;28;20401;-81
2023/01/02 08:16:11;;;;;;;10.45;6.82;;;9.10;99.90;;;;;;6205647;28;20050;-81
2023/01/02 08:19:13;;;;;;;12.63;8.07;;;9.20;99.90;;;;;;6205236;28;20053;-81
2023/01/02 08:22:15;;;;;;;9.23;5.00;;;9.20;99.90;;;;;;6205610;28;20050;-80
2023/01/02 08:25:18;;;;;;;9.25;5.18;;;9.30;99.90;;;;;;6205815;28;20046;-81
2023/01/02 08:28:20;;;;;;;7.20;4.97;;;9.40;99.90;;;;;;6204772;28;20054;-81
2023/01/02 08:31:22;;;;;;;12.63;5.35;;;9.40;99.90;;;;;;6206477;28;20404;-81
2023/01/02 08:34:23;;;;;;;10.68;5.55;;;9.50;99.90;;;;;;6205564;28;20125;-81
2023/01/02 08:37:25;;;;;;;10.43;4.50;;;9.60;99.90;;;;;;6204161;28;20050;-82
2023/01/02 08:40:28;;;;;;;6.25;4.53;;;9.80;99.90;;;;;;6202726;28;20416;-80
2023/01/02 08:43:33;;;;;;;15.63;4.60;;;9.90;99.90;;;;;;6203651;28;20042;-80
2023/01/02 08:46:36;;;;;;;7.35;4.65;;;10.10;99.90;;;;;;6203202;28;20364;-81
2023/01/02 08:49:37;;;;;;;4.78;4.22;;;10.30;99.90;;;;;;6213890;28;20053;-80
2023/01/02 08:52:39;;;;;;;13.63;4.18;;;10.50;99.90;;;;;;6219974;28;20060;-80
2023/01/02 08:55:42;;;;;;;10.63;4.68;;;10.80;99.90;;;;;;6208897;28;20050;-81
2023/01/02 08:58:44;;;;;;;14.65;6.85;;;11.10;99.90;;;;;;6205765;28;20042;-81
2023/01/02 09:01:45;;;;;;;9.15;4.57;;;11.50;99.90;;;;;;6205827;28;20077;-81
2023/01/02 09:04:47;;;;;;;5.65;4.05;;;11.80;99.90;;;;;;6206142;28;20047;-81
2023/01/02 09:07:49;;;;;;;12.52;5.35;;;12.10;99.90;;;;;;6204767;28;20050;-80
2023/01/02 09:10:52;;;;;;;13.18;4.13;;;12.20;99.90;;;;;;6203813;28;20063;-82
2023/01/02 09:13:54;;;;;;;10.57;4.85;;;12.40;99.90;;;;;;6205151;28;20069;-81
2023/01/02 09:16:56;;;;;;;9.77;3.90;;;12.50;99.90;;;;;;6204647;28;20046;-81
2023/01/02 09:19:58;;;;;;;7.22;4.78;;;12.70;99.90;;;;;;6203952;28;20046;-81
2023/01/02 09:23:00;;;;;;;9.32;3.90;;;12.80;99.90;;;;;;6204174;28;20049;-80
2023/01/02 09:26:05;;;;;;;8.52;3.70;;;12.90;99.90;;;;;;6155741;28;20057;-79
2023/01/02 09:29:07;;;;;;;5.80;4.28;;;13.00;99.90;;;;;;6210729;28;20053;-81
2023/01/02 09:32:08;;;;;;;8.07;4.72;;;13.20;99.90;;;;;;6199889;28;20042;-79
2023/01/02 09:35:10;;;;;;;10.55;3.70;;;13.30;99.90;;;;;;6194425;28;20050;-80
2023/01/02 09:38:12;;;;;;;8.25;4.18;;;13.40;99.90;;;;;;6195447;28;20057;-81
2023/01/02 09:41:26;;;;;;;5.65;4.18;;;13.50;99.90;;;;;;6197816;28;20420;-81
2023/01/02 09:44:36;;;;;;;6.45;3.28;;;13.60;99.90;;;;;;6203343;28;20046;-81
2023/01/02 09:47:39;;;;;;;6.72;2.80;;;13.60;99.90;;;;;;6203901;28;20076;-81
2023/01/02 09:50:41;;;;;;;6.97;3.25;;;13.70;99.90;;;;;;6206340;28;20046;-80
2023/01/02 09:53:43;;;;;;;4.20;2.78;;;13.90;99.90;;;;;;6203804;28;20050;-80
2023/01/02 09:56:50;;;;;;;5.47;2.88;;;14.00;99.90;;;;;;6204106;28;20072;-81
2023/01/02 09:59:59;;;;;;;8.75;2.67;;;14.10;99.90;;;;;;6207904;28;20065;-80
2023/01/02 10:03:10;;;;;;;6.28;2.97;;;14.20;99.90;;;;;;6208542;28;20058;-80
2023/01/02 10:06:16;;;;;;;7.28;2.97;;;14.20;99.90;;;;;;6201412;28;20089;-80
2023/01/02 10:09:24;;;;;;;8.05;2.65;;;14.30;99.90;;;;;;6207246;28;20046;-79
2023/01/02 10:12:35;;;;;;;8.38;3.13;;;14.50;99.90;;;;;;6207328;28;20050;-80
2023/01/02 10:15:42;;;;;;;8.70;2.92;;;14.70;99.90;;;;;;6208375;28;20061;-80
2023/01/02 10:18:48;;;;;;;6.05;2.28;;;15.00;99.90;;;;;;6207217;28;20049;-81
2023/01/02 10:21:55;;;;;;;5.60;2.95;;;15.20;99.90;;;;;;6207909;28;20061;-80
2023/01/02 10:25:05;;;;;;;5.40;2.30;;;15.30;99.90;;;;;;6208068;28;20056;-82
2023/01/02 10:28:25;;;;;;;14.35;3.80;;;15.40;99.70;;;;;;6207849;28;20061;-82
2023/01/02 10:31:34;;;;;;;5.90;2.75;;;15.40;99.30;;;;;;6210132;28;20042;-81
2023/01/02 10:34:41;;;;;;;5.13;2.75;;;15.40;99.30;;;;;;6201850;28;20055;-83
2023/01/02 10:37:43;;;;;;;9.43;3.75;;;15.40;99.00;;;;;;6209714;28;20148;-81
2023/01/02 10:40:47;;;;;;;8.15;2.65;;;15.40;98.90;;;;;;6208417;28;20050;-81
2023/01/02 10:43:54;;;;;;;10.68;3.13;;;15.50;98.70;;;;;;6201112;28;20051;-80
2023/01/02 10:46:57;;;;;;;8.00;2.70;;;15.60;98.30;;;;;;6193863;28;20038;-81
2023/01/02 10:50:00;;;;;;;6.32;2.92;;;15.90;98.00;;;;;;6206828;28;20050;-80
2023/01/02 10:53:07;;;;;;;11.20;4.13;;;16.30;97.30;;;;;;6206192;28;20516;-82
2023/01/02 10:56:17;;;;;;;5.28;2.70;;;16.70;96.40;;;;;;6205436;28;20523;-80
2023/01/02 10:59:23;;;;;;;14.80;3.30;;;17.10;95.00;;;;;;6205366;28;20049;-81
2023/01/02 11:02:28;;;;;;;12.57;2.97;;;17.20;94.70;;;;;;6205978;28;20053;-81
2023/01/02 11:05:31;;;;;;;8.07;2.90;;;17.30;93.90;;;;;;6199391;28;20049;-82
2023/01/02 11:08:37;;;;;;;11.52;3.28;;;17.40;93.70;;;;;;6204607;28;20069;-82
2023/01/02 11:11:49;;;;;;;13.52;5.00;;;17.70;93.00;;;;;;6205455;28;20053;-81
2023/01/02 11:14:52;;;;;;;13.15;2.67;;;17.80;92.30;;;;;;6198809;28;20432;-82
2023/01/02 11:17:54;;;;;;;10.88;3.33;;;18.00;91.70;;;;;;6199850;28;20057;-81
2023/01/02 11:21:03;;;;;;;15.93;2.63;;;18.20;90.70;;;;;;6205126;28;20050;-81
2023/01/02 11:24:08;;;;;;;9.93;2.55;;;18.50;90.10;;;;;;6205287;28;20137;-81
2023/01/02 11:27:10;;;;;;;7.60;2.85;;;18.70;89.40;;;;;;6205555;28;20042;-80
2023/01/02 11:30:28;;;;;;;12.20;4.55;;;19.00;87.50;;;;;;6205056;28;20058;-81
2023/01/02 11:33:31;;;;;;;8.13;2.70;;;19.00;86.80;;;;;;6204487;28;20053;-82
2023/01/02 11:36:33;;;;;;;8.57;2.22;;;19.10;86.80;;;;;;6200260;28;20428;-82
2023/01/02 11:39:35;;;;;;;9.25;2.58;;;19.30;86.10;;;;;;6200125;28;20046;-82
2023/01/02 11:46:08;;;;;;;13.15;2.47;;;19.10;85.20;;;;;;6205997;28;20058;-82
2023/01/02 11:49:14;;;;;;;10.30;2.97;;;19.40;84.60;;;;;;6205379;28;20125;-82
2023/01/02 11:52:20;;;;;;;17.50;3.15;;;19.50;83.10;;;;;;6206074;28;20046;-82
2023/01/02 11:55:33;;;;;;;8.77;2.97;;;19.50;82.80;;;;;;6205607;28;20416;-82
2023/01/02 11:58:47;;;;;;;10.27;3.38;;;19.40;81.60;;;;;;6205646;28;20054;-82
2023/01/02 12:01:57;;;;;;;7.53;2.33;;;19.20;82.00;;;;;;6206406;28;20047;-82
2023/01/02 12:04:59;;;;;;;5.65;2.15;;;19.30;82.00;;;;;;6192391;28;20045;-82
2023/01/02 12:08:06;;;;;;;14.98;3.47;;;19.30;82.10;;;;;;6181910;28;20054;-82
2023/01/02 12:11:20;;;;;;;14.27;3.05;;;19.20;82.10;;;;;;6183565;28;20047;-81
2023/01/02 12:14:27;;;;;;;19.67;4.47;;;19.10;82.50;;;;;;6187070;28;20052;-81
2023/01/02 12:17:40;;;;;;;13.20;3.83;;;18.90;83.70;;;;;;6181702;28;20054;-81
2023/01/02 12:20:51;;;;;;;8.25;2.95;;;18.60;85.10;;;;;;6181096;28;20045;-81
2023/01/02 12:24:25;;;;;;;15.98;4.13;;;18.30;86.00;;;;;;6181385;28;20061;-81
2023/01/02 12:27:35;;;;;;;12.73;3.25;;;18.00;87.30;;;;;;6185826;28;20058;-82
2023/01/02 12:30:44;;;;;;;13.60;3.78;;;17.90;88.10;;;;;;6185687;28;20055;-82
2023/01/02 12:33:55;;;;;;;7.82;2.97;;;17.70;88.90;;;;;;6192071;28;20054;-82
2023/01/02 12:37:09;;;;;;;18.55;9.05;;;17.50;89.60;;;;;;6205713;28;20054;-82
2023/01/02 12:40:33;;;;;;;35.40;25.85;;;17.40;90.00;;;;;;6196799;28;20043;-82
2023/01/02 12:43:56;;;;;;;38.83;25.77;;;17.30;90.30;;;;;;6203716;28;20058;-81
2023/01/02 12:47:13;;;;;;;35.65;21.67;;;17.20;90.60;;;;;;6205583;28;20046;-82
2023/01/02 12:50:42;;;;;;;30.88;21.60;;;17.10;90.90;;;;;;6205297;28;20053;-82
2023/01/02 12:54:05;;;;;;;12.85;8.57;;;17.00;91.10;;;;;;6205800;28;20065;-82
2023/01/02 12:57:15;;;;;;;12.85;8.18;;;16.90;91.20;;;;;;6206026;28;20042;-81
2023/01/02 13:00:45;;;;;;;10.13;5.28;;;16.80;91.40;;;;;;6204481;28;20430;-83
2023/01/02 13:03:57;;;;;;;11.15;8.20;;;16.70;91.70;;;;;;6202940;28;20047;-81
2023/01/02 13:07:04;;;;;;;10.70;6.68;;;16.60;92.00;;;;;;6201414;28;20132;-83
2023/01/02 13:10:12;;;;;;;10.63;3.17;;;16.50;92.30;;;;;;6205378;28;20052;-84
2023/01/02 13:13:15;;;;;;;12.25;4.00;;;16.40;92.40;;;;;;6205333;28;20050;-83
2023/01/02 13:16:18;;;;;;;13.07;4.70;;;16.20;92.60;;;;;;6194288;28;20051;-84
2023/01/02 13:19:26;;;;;;;11.73;3.58;;;16.10;93.10;;;;;;6182048;28;20043;-84
2023/01/02 13:22:37;;;;;;;8.25;2.60;;;15.90;93.70;;;;;;6183836;28;20055;-84
2023/01/02 13:25:45;;;;;;;6.35;3.05;;;15.70;94.40;;;;;;6184644;28;20051;-84
2023/01/02 13:28:54;;;;;;;7.80;3.08;;;15.50;95.00;;;;;;6184336;28;20531;-84
2023/01/02 13:31:56;;;;;;;10.52;3.22;;;15.20;95.70;;;;;;6205567;28;20058;-84
2023/01/02 13:35:01;;;;;;;9.90;2.67;;;15.00;96.30;;;;;;6200746;28;20056;-84
2023/01/02 13:38:07;;;;;;;8.93;3.63;;;14.80;97.10;;;;;;6210399;28;20046;-84
2023/01/02 13:41:15;;;;;;;15.75;3.50;;;14.60;97.80;;;;;;6210218;28;20050;-84
2023/01/02 13:44:17;;;;;;;14.15;3.53;;;14.50;98.70;;;;;;6205444;28;20038;-83
2023/01/02 13:47:22;;;;;;;10.20;3.60;;;14.30;99.30;;;;;;6209284;28;20046;-84
2023/01/02 13:50:27;;;;;;;11.68;4.72;;;14.10;99.90;;;;;;6205800;28;20043;-84
2023/01/02 13:53:39;;;;;;;12.07;3.55;;;13.90;99.90;;;;;;6206756;28;20058;-84
2023/01/02 13:57:15;;;;;;;6.85;2.55;;;13.70;99.90;;;;;;6206060;28;20046;-84
2023/01/02 14:00:35;;;;;;;7.43;2.88;;;13.60;99.90;;;;;;6203389;28;20101;-84
2023/01/02 14:03:37;;;;;;;14.52;3.95;;;13.40;99.90;;;;;;6203042;28;20101;-82
2023/01/02 14:06:41;;;;;;;14.32;3.80;;;13.30;99.90;;;;;;6199059;28;20051;-84
2023/01/02 14:10:11;;;;;;;19.08;4.40;;;13.20;99.90;;;;;;6206270;28;20424;-83
2023/01/02 14:13:22;;;;;;;13.68;4.63;;;13.10;99.90;;;;;;6206369;28;20065;-83
2023/01/02 14:16:46;;;;;;;9.13;3.85;;;13.00;99.90;;;;;;6206398;28;20661;-84
2023/01/02 14:20:21;;;;;;;12.00;4.65;;;12.80;99.90;;;;;;6203961;28;20100;-83
2023/01/02 14:23:28;;;;;;;9.73;3.47;;;12.70;99.90;;;;;;6206115;28;20047;-82
2023/01/02 14:26:34;;;;;;;8.75;4.30;;;12.70;99.90;;;;;;6205575;28;20050;-83
2023/01/02 14:29:42;;;;;;;12.70;3.90;;;12.60;99.90;;;;;;6205925;28;20055;-81
2023/01/02 14:32:45;;;;;;;7.28;4.57;;;12.50;99.90;;;;;;6201184;28;20065;-83
2023/01/02 14:35:51;;;;;;;8.57;4.30;;;12.40;99.90;;;;;;6186797;28;20046;-83
2023/01/02 14:38:56;;;;;;;25.25;5.28;;;12.20;99.90;;;;;;6177958;28;20043;-82
2023/01/02 14:45:32;;;;;;;9.70;4.55;;;12.00;99.90;;;;;;6202432;28;20050;-82
2023/01/02 14:48:40;;;;;;;10.27;5.07;;;11.90;99.90;;;;;;6204965;28;20053;-82
2023/01/02 14:51:47;;;;;;;12.32;5.47;;;11.80;99.90;;;;;;6208382;28;20057;-82
2023/01/02 14:54:53;;;;;;;23.20;6.15;;;11.80;99.90;;;;;;6209036;28;20042;-81
2023/01/02 14:57:59;;;;;;;23.27;7.90;;;11.70;99.90;;;;;;6203327;28;20416;-82
2023/01/02 15:01:01;;;;;;;13.07;5.05;;;11.70;99.90;;;;;;6202991;28;20047;-83
2023/01/02 15:04:17;;;;;;;22.13;6.65;;;11.70;99.90;;;;;;6196691;28;20050;-82
2023/01/02 15:07:26;;;;;;;12.40;6.82;;;11.60;99.90;;;;;;6202893;28;20054;-82
2023/01/02 15:10:28;;;;;;;22.63;5.50;;;11.60;99.90;;;;;;6203477;28;20412;-81
2023/01/02 15:13:32;;;;;;;12.23;5.50;;;11.70;99.90;;;;;;6200659;28;20416;-82
2023/01/02 15:16:41;;;;;;;11.30;5.75;;;11.60;99.90;;;;;;6195774;28;20535;-83
2023/01/02 15:19:43;;;;;;;10.73;5.57;;;11.60;99.90;;;;;;6202165;28;20049;-82
2023/01/02 15:22:46;;;;;;;10.15;5.80;;;11.70;99.90;;;;;;6203304;28;20488;-82
2023/01/02 15:25:48;;;;;;;8.57;6.82;;;11.60;99.90;;;;;;6204008;28;20057;-82
2023/01/02 15:28:57;;;;;;;14.15;5.40;;;11.60;99.90;;;;;;6200877;28;20042;-80
2023/01/02 15:32:00;;;;;;;17.52;6.18;;;11.60;99.90;;;;;;6184063;28;20055;-82
2023/01/02 15:35:09;;;;;;;10.63;5.50;;;11.60;99.90;;;;;;6192430;28;20050;-82
2023/01/02 15:38:20;;;;;;;13.32;5.45;;;11.60;99.90;;;;;;6209613;28;20056;-82
2023/01/02 15:41:22;;;;;;;13.02;6.10;;;11.70;99.90;;;;;;6202572;28;20050;-82
2023/01/02 15:47:49;;;;;;;11.25;4.57;;;11.70;99.90;;;;;;6205499;28;20055;-83
2023/01/02 15:50:53;;;;;;;25.83;5.20;;;11.70;99.90;;;;;;6208089;28;20057;-83
2023/01/02 15:53:55;;;;;;;16.33;7.22;;;11.80;99.90;;;;;;6210093;28;20078;-83
2023/01/02 15:57:05;;;;;;;11.88;5.13;;;11.70;99.90;;;;;;6209384;28;20046;-83
2023/01/02 16:00:31;;;;;;;12.05;5.97;;;11.80;99.90;;;;;;6207635;28;20042;-83
2023/01/02 16:03:35;;;;;;;27.73;9.02;;;11.70;99.90;;;;;;6205542;28;20519;-84
2023/01/02 16:06:40;;;;;;;11.68;7.85;;;11.80;99.90;;;;;;6201505;28;20054;-83
2023/01/02 16:09:51;;;;;;;13.65;7.53;;;11.70;99.90;;;;;;6207199;28;20488;-80
2023/01/02 16:12:55;;;;;;;19.58;6.53;;;11.70;99.90;;;;;;6210729;28;20042;-83
2023/01/02 16:15:59;;;;;;;13.63;6.20;;;11.70;99.90;;;;;;6208238;28;20504;-82
2023/01/02 16:19:01;;;;;;;15.23;5.93;;;11.60;99.90;;;;;;6207061;28;20531;-81
2023/01/02 16:22:07;;;;;;;17.10;7.47;;;11.60;99.90;;;;;;6207893;28;20042;-81